Berlin Heights, Ohio
Current Conditions -  °F | °C
As of 8:53 PM on Monday 24 Nov 2014 (Local Time) from KLPR Reporting Station
Light Rain Light Rain  
Wind Chill: 30°   Ceiling: 3400
Heat Index: 41°   Visibility: 10mi
Dew Point: 31°   Wind: 26mph
Humidity: 67%   Direction: 250°WSW
Pressure: 29.73"   Gusts: 40mph
Location:  41.33°N, 82.49°W
Report Text: KLPR 250153Z AUTO 25023G35KT 10SM -RA OVC034 05/M01 A2973 RMK AO2 PK WND 26040/0132 SLP069 P0000 T00501006 TSNO
Loading
Personal Weather Stations






























Interactive Weather Map New forecast layout! Learn more

10-Day Weather Forecast

Advertisements
Track Severe Weather on mobile